Startpagina
METAR-TAF:

METAR-TAF

Vliegvelden :

Ho Chi Minhstad, Vietnam

Internationale Luchthaven Tân Sơn Nhất

breedte: 10-49N, lengte: 106-40E, hoogte: 19 m

Actueel weer

Dit bericht is 25 minuten geleden gemaakt, om 12:30 UTC
Wind 5 kt uit het zuidoosten, variërend tussen het oosten en het zuidzuidoosten
Temperatuur 29°C
Vochtigheid 74%
Druk 1007 hPa
Zicht 10 km of meer
Weinig wolken op 1700 ft
Verspreide wolken op 4000 ft

METAR: VVTS 221230Z 13005KT 100V160 9999 FEW017 SCT040 29/24 Q1007 NOSIG

Tijdstip: 19:55 (12:55 UTC)

Verwachting

Dit bericht is 1 uur en het 55 minuten geleden gemaakt, om 11:00 UTC
Verwachting geldig van 22 om 12 UTC tot 23 om 18 UTC
Wind 10 kt uit het oostzuidoosten
Zicht 10 km of meer
Weinig wolken op 1700 ft

TAF: VVTS 221100Z 2212/2318 12010KT 9999 FEW017

Waarnemingen en weersverwachtingen van meer dan 4000 vliegvelden (METAR en TAF).

De beschikbare stations zijn de gele en rode punten op de kaart.

Ga met uw muis naar het station om de naam te zien.

Klik dan om waarnemingen en weersverwachtingen te zien.

kaart wijzigen: klik op de groene knoppen met een zwart kruis om in te zoomen, op de groene knop met een streepje om uit te zoomen of op de groene pijlen voor aangrenzende kaarten.


METAR-TAF: